Hermon, NY (13652)

2:31 PM EST on February 27, 2017 (GMT -0500)
Richville | | Change Station

Elev 408 ft 44.41 °N, 75.39 °W | Updated 35 seconds ago

Mostly Cloudy
Mostly Cloudy
45.7 °F
Feels Like 42 °F
N
6.8
Wind Variable Wind from ESE

Today
High -- | Low -- °F
--% Chance of Precip.
Yesterday
High -- | Low -- °F
Precip. -- in
Pressure 30.17 in
Visibility 10.0 miles
Clouds Scattered Clouds 3700 ft
Scattered Clouds 4300 ft
Scattered Clouds 6000 ft
Windchill 42 °F
Dew Point 29 °F
Humidity 52%
Rainfall 0.00 in
Snow Depth Not available.
6:41 AM 5:46 PM
New Moon, 2% visible
METAR KOGS 271915Z AUTO 23011G18KT 210V270 10SM SCT037 SCT043 SCT060 08/M01 A3017 RMK AO2 T00791006 TSNO
Pressure 30.17 in
Visibility 10.0 miles
Clouds Scattered Clouds 3700 ft
Scattered Clouds 4300 ft
Scattered Clouds 6000 ft
Windchill 42 °F
Dew Point 29 °F
Humidity 52%
Rainfall 0.00 in
Snow Depth Not available.
6:41 AM 5:46 PM
New Moon, 2% visible
METAR KOGS 271915Z AUTO 23011G18KT 210V270 10SM SCT037 SCT043 SCT060 08/M01 A3017 RMK AO2 T00791006 TSNO

Get Your Daily Forecast Email!

Thanks for signing up!

Be on the lookout for a verification email in your inbox.

You'll start receiving the daily forecast at 8 AM.

×

10-Day Weather Forecast

Almanac

Astronomy

Feb. 27, 2017 Rise Set
Actual Time
Civil Twilight
Nautical Twilight
Astronomical Twilight
Moon
Length of Visible Light
Length of Day
Tomorrow will be .
, % of the Moon is Illuminated

Today's Extremes

State Highs State Lows

Community

WunderPhotos

Upload Photos

1,962,540 photos uploaded!

WunderBlog® & News

Nearby

Air Quality

  Air Quality AQ Index Pollutant
Not available.

Snow Depth

Station Depth Elevation

Earthquake Activity

City Distance Mag. Time & Date
Minimum magnitude displayed is 2.5.

Coastal Water Temperatures

Place Temperature

Stations

Nearby Weather Stations

Station Location Temp. Windchill Dew Point Humidity Wind Precip. Elev Updated Type
                   

Watches & Warnings

There are currently no watches in effect.